Time;durP1;ratioP1;P1;durP2;ratioP2;P2;SDS_P1;SDS_P2;PMS_P1;PMS_P2;Temp;Humidity;BMP_temperature;BMP_pressure;BME280_temperature;BME280_humidity;BME280_pressure;Samples;Min_cycle;Max_cycle;Signal;HPM_P1;HPM_P2
2023/09/27 00:01:16;;;;;;;5.60;4.13;;;12.60;99.90;;;;;;5022154;28;20185;-28
2023/09/27 00:03:42;;;;;;;5.33;3.93;;;12.50;99.90;;;;;;5019280;28;20214;-28
2023/09/27 00:06:08;;;;;;;4.33;3.80;;;12.40;99.90;;;;;;5015555;28;20205;-28
2023/09/27 00:08:34;;;;;;;5.13;4.40;;;12.30;99.90;;;;;;5016509;28;20228;-28
2023/09/27 00:11:00;;;;;;;7.03;4.40;;;12.20;99.90;;;;;;5014894;28;20190;-28
2023/09/27 00:13:25;;;;;;;6.17;4.40;;;12.20;99.90;;;;;;5029350;28;20184;-28
2023/09/27 00:15:51;;;;;;;5.37;4.30;;;12.20;99.90;;;;;;5023586;28;20201;-28
2023/09/27 00:18:17;;;;;;;4.40;4.00;;;12.30;99.90;;;;;;5016535;28;20197;-28
2023/09/27 00:20:43;;;;;;;5.73;4.27;;;12.40;99.90;;;;;;5032639;28;20189;-28
2023/09/27 00:23:09;;;;;;;4.67;4.00;;;12.40;99.90;;;;;;5019969;28;20201;-28
2023/09/27 00:25:35;;;;;;;4.30;3.90;;;12.40;99.90;;;;;;5032911;28;20224;-27
2023/09/27 00:28:01;;;;;;;6.17;4.37;;;12.30;99.90;;;;;;5034237;28;20182;-28
2023/09/27 00:30:27;;;;;;;4.73;3.83;;;12.30;99.90;;;;;;5016224;28;20182;-28
2023/09/27 00:32:53;;;;;;;4.90;4.00;;;12.30;99.90;;;;;;5016752;28;20272;-28
2023/09/27 00:35:19;;;;;;;6.37;3.63;;;12.40;99.90;;;;;;5015944;28;20276;-27
2023/09/27 00:37:46;;;;;;;6.63;4.13;;;12.40;99.90;;;;;;5032804;28;20188;-27
2023/09/27 00:40:14;;;;;;;4.80;4.00;;;12.40;99.90;;;;;;5015173;28;20259;-28
2023/09/27 00:42:40;;;;;;;5.40;4.00;;;12.40;99.90;;;;;;5022024;28;20213;-28
2023/09/27 00:45:07;;;;;;;4.83;4.30;;;12.30;99.90;;;;;;5016352;28;20339;-27
2023/09/27 00:47:34;;;;;;;4.37;3.97;;;12.30;99.90;;;;;;5032744;28;20174;-28
2023/09/27 00:50:02;;;;;;;6.53;4.03;;;12.30;99.90;;;;;;5015925;28;20251;-27
2023/09/27 00:52:28;;;;;;;4.60;3.90;;;12.30;99.90;;;;;;5031820;28;20192;-28
2023/09/27 00:54:54;;;;;;;5.40;3.97;;;12.20;99.90;;;;;;5031083;28;20212;-28
2023/09/27 00:57:22;;;;;;;4.60;3.77;;;12.20;99.90;;;;;;5015799;28;20185;-28
2023/09/27 00:59:48;;;;;;;5.57;3.97;;;12.20;99.90;;;;;;5016983;28;20180;-27
2023/09/27 01:02:15;;;;;;;4.50;3.90;;;12.10;99.90;;;;;;5018494;28;20287;-27
2023/09/27 01:04:43;;;;;;;4.20;3.80;;;12.00;99.90;;;;;;5018030;28;20192;-27
2023/09/27 01:07:10;;;;;;;5.07;4.57;;;12.00;99.90;;;;;;5015647;28;20181;-28
2023/09/27 01:09:37;;;;;;;5.10;3.80;;;11.90;99.90;;;;;;5031824;28;20274;-28
2023/09/27 01:12:05;;;;;;;3.93;3.53;;;11.90;99.90;;;;;;5048454;28;20181;-27
2023/09/27 01:14:31;;;;;;;5.40;4.07;;;11.80;99.90;;;;;;5015791;28;20172;-27
2023/09/27 01:17:11;;;;;;;4.03;3.63;;;11.70;99.90;;;;;;5015942;28;20213;-28
2023/09/27 01:19:38;;;;;;;5.50;3.83;;;11.70;99.90;;;;;;5016011;28;20267;-28
2023/09/27 01:22:04;;;;;;;4.63;4.10;;;11.60;99.90;;;;;;5031925;28;20209;-27
2023/09/27 01:24:34;;;;;;;6.03;4.07;;;11.70;99.90;;;;;;5031627;28;20266;-28
2023/09/27 01:27:01;;;;;;;5.70;3.83;;;11.80;99.90;;;;;;5015666;28;20221;-27
2023/09/27 01:29:27;;;;;;;4.53;4.13;;;11.80;99.90;;;;;;5032160;28;20220;-28
2023/09/27 01:31:53;;;;;;;4.40;3.67;;;11.70;99.90;;;;;;5015137;28;20181;-27
2023/09/27 01:34:19;;;;;;;5.77;4.00;;;11.80;99.90;;;;;;5017570;28;20182;-27
2023/09/27 01:36:45;;;;;;;6.87;4.40;;;11.80;99.90;;;;;;5036295;28;20201;-27
2023/09/27 01:39:11;;;;;;;4.37;3.93;;;11.80;99.90;;;;;;5035980;28;20234;-28
2023/09/27 01:41:37;;;;;;;4.65;4.10;;;11.70;99.90;;;;;;5035405;28;20269;-27
2023/09/27 01:44:02;;;;;;;5.13;4.60;;;11.60;99.90;;;;;;5019414;28;20246;-27
2023/09/27 01:46:28;;;;;;;5.73;4.20;;;11.50;99.90;;;;;;5019157;28;20196;-27
2023/09/27 01:48:54;;;;;;;4.73;3.97;;;11.50;99.90;;;;;;5035895;28;20215;-27
2023/09/27 01:51:20;;;;;;;5.20;4.70;;;11.50;99.90;;;;;;5015940;28;20183;-27
2023/09/27 01:53:46;;;;;;;5.47;4.40;;;11.50;99.90;;;;;;5035605;28;20192;-27
2023/09/27 01:56:12;;;;;;;5.10;4.60;;;11.40;99.90;;;;;;5015709;28;20231;-27
2023/09/27 01:58:38;;;;;;;4.53;4.10;;;11.30;99.90;;;;;;5017687;28;20195;-28
2023/09/27 02:01:04;;;;;;;5.73;4.27;;;11.40;99.90;;;;;;5016764;28;20186;-27
2023/09/27 02:03:30;;;;;;;4.87;4.17;;;11.50;99.90;;;;;;5035475;28;20202;-27
2023/09/27 02:05:57;;;;;;;5.73;4.40;;;11.50;99.90;;;;;;5017930;28;20191;-27
2023/09/27 02:08:23;;;;;;;5.37;4.10;;;11.50;99.90;;;;;;5018986;28;20185;-27
2023/09/27 02:10:52;;;;;;;4.60;4.10;;;11.50;99.90;;;;;;5035333;28;20194;-28
2023/09/27 02:13:18;;;;;;;7.67;4.37;;;11.50;99.90;;;;;;5026043;28;20194;-27
2023/09/27 02:15:44;;;;;;;5.40;4.27;;;11.50;99.90;;;;;;5016916;28;20199;-29
2023/09/27 02:18:11;;;;;;;4.83;4.43;;;11.50;99.90;;;;;;5035415;28;20254;-27
2023/09/27 02:20:37;;;;;;;5.43;4.60;;;11.40;99.90;;;;;;5018663;28;20192;-27
2023/09/27 02:23:03;;;;;;;4.70;4.30;;;11.50;99.90;;;;;;5035335;28;20208;-28
2023/09/27 02:25:29;;;;;;;6.23;5.00;;;11.50;99.90;;;;;;5034897;28;20204;-27
2023/09/27 02:27:55;;;;;;;4.67;4.27;;;11.50;99.90;;;;;;5035087;28;20212;-27
2023/09/27 02:30:21;;;;;;;4.60;4.17;;;11.40;99.90;;;;;;5035084;28;20286;-27
2023/09/27 02:32:47;;;;;;;6.10;4.60;;;11.40;99.90;;;;;;5035374;28;20190;-27
2023/09/27 02:35:13;;;;;;;6.80;4.93;;;11.30;99.90;;;;;;5034488;28;20223;-27
2023/09/27 02:37:41;;;;;;;5.20;4.70;;;11.40;99.90;;;;;;5018733;28;20184;-28
2023/09/27 02:40:11;;;;;;;4.97;4.57;;;11.30;99.90;;;;;;5018186;28;20186;-27
2023/09/27 02:42:42;;;;;;;5.20;4.70;;;11.50;99.90;;;;;;5018485;28;20207;-27
2023/09/27 02:45:12;;;;;;;5.23;4.73;;;11.50;99.90;;;;;;5017375;28;20197;-27
2023/09/27 02:47:39;;;;;;;6.50;5.03;;;11.50;99.90;;;;;;5018728;28;20176;-27
2023/09/27 02:50:09;;;;;;;5.50;4.57;;;11.50;99.90;;;;;;5034576;28;20184;-27
2023/09/27 02:52:36;;;;;;;5.00;4.50;;;11.50;99.90;;;;;;5033991;28;20187;-27
2023/09/27 02:55:02;;;;;;;5.43;4.30;;;11.50;99.90;;;;;;5034688;28;20212;-28
2023/09/27 02:57:27;;;;;;;4.97;4.47;;;11.50;99.90;;;;;;5034669;28;20192;-27
2023/09/27 02:59:53;;;;;;;6.40;4.77;;;11.40;99.90;;;;;;5034385;28;20219;-27
2023/09/27 03:02:20;;;;;;;5.10;4.60;;;11.40;99.90;;;;;;5031140;28;20345;-28
2023/09/27 03:04:47;;;;;;;5.40;4.30;;;11.30;99.90;;;;;;5029313;28;20184;-27
2023/09/27 03:07:15;;;;;;;5.90;4.77;;;11.30;99.90;;;;;;5037883;28;20179;-27
2023/09/27 03:09:42;;;;;;;5.17;4.70;;;11.20;99.90;;;;;;5027679;28;20192;-27
2023/09/27 03:12:08;;;;;;;6.27;4.67;;;11.20;99.90;;;;;;5033043;28;20204;-27
2023/09/27 03:14:34;;;;;;;7.73;4.43;;;11.20;99.90;;;;;;5022457;28;20241;-27
2023/09/27 03:17:01;;;;;;;4.80;4.30;;;11.30;99.90;;;;;;5033594;28;20199;-27
2023/09/27 03:19:27;;;;;;;5.77;4.60;;;11.20;99.90;;;;;;5017738;28;20181;-27
2023/09/27 03:21:53;;;;;;;5.73;4.73;;;11.20;99.90;;;;;;5016999;28;20248;-28
2023/09/27 03:24:19;;;;;;;6.07;4.03;;;11.10;99.90;;;;;;5017926;28;20232;-27
2023/09/27 03:26:45;;;;;;;5.83;4.17;;;11.10;99.90;;;;;;5017057;28;20212;-27
2023/09/27 03:29:11;;;;;;;5.20;4.47;;;11.00;99.90;;;;;;5033817;28;20180;-27
2023/09/27 03:31:37;;;;;;;6.27;4.20;;;10.90;99.90;;;;;;5033838;28;20184;-28
2023/09/27 03:34:03;;;;;;;4.17;3.67;;;10.90;99.90;;;;;;5017051;28;20183;-27
2023/09/27 03:36:29;;;;;;;5.17;4.10;;;10.90;99.90;;;;;;5017475;28;20208;-27
2023/09/27 03:38:55;;;;;;;4.93;4.10;;;10.90;99.90;;;;;;5017165;28;20238;-27
2023/09/27 03:41:21;;;;;;;4.73;3.93;;;11.00;99.90;;;;;;5027939;28;20182;-27
2023/09/27 03:43:47;;;;;;;5.73;4.47;;;11.00;99.90;;;;;;5018454;28;20277;-28
2023/09/27 03:46:13;;;;;;;4.50;3.80;;;11.00;99.90;;;;;;5031080;28;20203;-27
2023/09/27 03:48:39;;;;;;;6.03;4.07;;;10.90;99.90;;;;;;5017272;28;20681;-27
2023/09/27 03:51:05;;;;;;;4.63;4.23;;;10.90;99.90;;;;;;5033025;28;20188;-28
2023/09/27 03:53:31;;;;;;;6.47;4.40;;;10.70;99.90;;;;;;5013713;28;20183;-27
2023/09/27 03:55:57;;;;;;;5.13;4.63;;;10.60;99.90;;;;;;5024782;28;20207;-28
2023/09/27 03:58:23;;;;;;;5.00;4.50;;;10.60;99.90;;;;;;5016995;28;20189;-27
2023/09/27 04:00:49;;;;;;;5.80;4.30;;;10.60;99.90;;;;;;5033038;28;20191;-28
2023/09/27 04:03:20;;;;;;;5.57;3.70;;;10.60;99.90;;;;;;5032502;28;20279;-27
2023/09/27 04:05:46;;;;;;;4.80;4.30;;;10.50;99.90;;;;;;5032836;28;20198;-28
2023/09/27 04:08:12;;;;;;;5.77;3.87;;;10.50;99.90;;;;;;5016912;28;20205;-28
2023/09/27 04:10:45;;;;;;;5.47;4.30;;;10.60;99.90;;;;;;5014049;28;20220;-28
2023/09/27 04:13:15;;;;;;;6.43;4.47;;;10.60;99.90;;;;;;5011931;28;20241;-27
2023/09/27 04:15:48;;;;;;;5.10;4.60;;;10.50;99.90;;;;;;5029721;28;20206;-28
2023/09/27 04:18:23;;;;;;;6.03;4.10;;;10.40;99.90;;;;;;5029355;28;20278;-28
2023/09/27 04:21:07;;;;;;;5.13;4.27;;;10.50;99.90;;;;;;5030814;28;20232;-28
2023/09/27 04:23:36;;;;;;;5.00;4.00;;;10.40;99.90;;;;;;5016485;28;20206;-28
2023/09/27 04:26:05;;;;;;;5.23;4.73;;;10.30;99.90;;;;;;5014576;28;20219;-27
2023/09/27 04:28:32;;;;;;;5.00;4.40;;;10.20;99.90;;;;;;5016315;28;20198;-28
2023/09/27 04:30:58;;;;;;;5.67;4.73;;;10.20;99.90;;;;;;5014649;28;20174;-28
2023/09/27 04:33:24;;;;;;;7.60;4.40;;;10.10;99.90;;;;;;5030900;28;20182;-28
2023/09/27 04:35:50;;;;;;;5.27;4.73;;;10.20;99.90;;;;;;5015427;28;20221;-28
2023/09/27 04:38:16;;;;;;;5.70;4.70;;;10.20;99.90;;;;;;5018298;28;20178;-28
2023/09/27 04:40:42;;;;;;;6.10;4.53;;;10.20;99.90;;;;;;5034951;28;20186;-28
2023/09/27 04:43:08;;;;;;;5.07;4.27;;;10.20;99.90;;;;;;5018783;28;20210;-28
2023/09/27 04:45:34;;;;;;;4.30;3.90;;;10.20;99.90;;;;;;5018498;28;20270;-28
2023/09/27 04:48:00;;;;;;;5.47;4.50;;;10.10;99.90;;;;;;5017366;28;20253;-27
2023/09/27 04:50:26;;;;;;;6.00;3.90;;;10.00;99.90;;;;;;5033065;28;20642;-27
2023/09/27 04:52:52;;;;;;;5.73;4.80;;;9.90;99.90;;;;;;5016751;28;20189;-28
2023/09/27 04:55:18;;;;;;;5.20;4.70;;;9.90;99.90;;;;;;5032336;28;20201;-27
2023/09/27 04:57:44;;;;;;;5.90;4.30;;;9.90;99.90;;;;;;5016287;28;20193;-28
2023/09/27 05:00:18;;;;;;;5.83;4.57;;;10.00;99.90;;;;;;5015651;28;20189;-28
2023/09/27 05:02:44;;;;;;;5.40;4.90;;;10.00;99.90;;;;;;5015556;28;20198;-28
2023/09/27 05:05:16;;;;;;;6.23;4.70;;;10.00;99.90;;;;;;5029372;28;20205;-28
2023/09/27 05:07:45;;;;;;;5.10;4.60;;;10.00;99.90;;;;;;5025463;28;20263;-27
2023/09/27 05:10:12;;;;;;;6.77;5.03;;;9.90;99.90;;;;;;5030002;28;20280;-27
2023/09/27 05:12:39;;;;;;;5.77;4.73;;;9.90;99.90;;;;;;5011492;28;20243;-28
2023/09/27 05:15:07;;;;;;;4.73;4.23;;;9.90;99.90;;;;;;5009472;28;20200;-27
2023/09/27 05:17:34;;;;;;;7.33;4.83;;;9.90;99.90;;;;;;5025182;28;20640;-28
2023/09/27 05:20:00;;;;;;;5.20;4.70;;;9.90;99.90;;;;;;5010150;28;20184;-28
2023/09/27 05:22:26;;;;;;;5.90;4.43;;;10.00;99.90;;;;;;5026456;28;20206;-28
2023/09/27 05:24:53;;;;;;;6.33;5.10;;;10.00;99.90;;;;;;5007528;28;20205;-28
2023/09/27 05:27:20;;;;;;;7.37;4.60;;;10.00;99.90;;;;;;5024570;28;20178;-27
2023/09/27 05:29:47;;;;;;;5.60;4.40;;;10.00;99.90;;;;;;5032755;28;20259;-27
2023/09/27 05:32:13;;;;;;;5.03;4.37;;;10.00;99.90;;;;;;5017323;28;20257;-27
2023/09/27 05:34:39;;;;;;;5.30;4.40;;;10.00;99.90;;;;;;5017452;28;20194;-28
2023/09/27 05:37:05;;;;;;;5.23;4.73;;;10.00;99.90;;;;;;5018666;28;20261;-28
2023/09/27 05:39:34;;;;;;;6.67;4.73;;;10.00;99.90;;;;;;5036831;28;20202;-28
2023/09/27 05:42:04;;;;;;;6.90;5.20;;;9.90;99.90;;;;;;5034600;28;20764;-28
2023/09/27 05:44:30;;;;;;;5.33;4.83;;;9.90;99.90;;;;;;5034552;28;20171;-28
2023/09/27 05:46:55;;;;;;;7.00;5.50;;;9.90;99.90;;;;;;5014456;28;20198;-28
2023/09/27 05:49:21;;;;;;;6.33;5.50;;;10.00;99.90;;;;;;5030883;28;20217;-28
2023/09/27 05:51:47;;;;;;;5.20;4.70;;;10.00;99.90;;;;;;5034061;28;20178;-28
2023/09/27 05:54:13;;;;;;;5.63;4.63;;;10.00;99.90;;;;;;5032525;28;20202;-28
2023/09/27 05:56:39;;;;;;;7.17;4.90;;;10.00;99.90;;;;;;5027657;28;20194;-27
2023/09/27 05:59:11;;;;;;;5.87;5.03;;;10.10;99.90;;;;;;5027012;28;20181;-28
2023/09/27 06:01:37;;;;;;;6.20;5.37;;;10.30;99.90;;;;;;5035679;28;20225;-28
2023/09/27 06:04:04;;;;;;;5.10;4.60;;;10.40;99.90;;;;;;5028012;28;20210;-28
2023/09/27 06:06:30;;;;;;;6.80;5.40;;;10.50;99.90;;;;;;5026545;28;20286;-28
2023/09/27 06:08:56;;;;;;;6.80;5.30;;;10.60;99.90;;;;;;5035571;28;20179;-28
2023/09/27 06:11:22;;;;;;;5.40;4.53;;;10.60;99.90;;;;;;5041107;28;20185;-28
2023/09/27 06:13:48;;;;;;;5.37;4.87;;;10.70;99.90;;;;;;5018672;28;20221;-28
2023/09/27 06:16:19;;;;;;;5.33;4.73;;;10.70;99.90;;;;;;5032752;28;20207;-28
2023/09/27 06:18:46;;;;;;;4.70;4.30;;;10.70;99.90;;;;;;5011857;28;20190;-27
2023/09/27 06:21:12;;;;;;;4.87;4.33;;;10.80;99.90;;;;;;5023825;28;20191;-27
2023/09/27 06:23:38;;;;;;;4.17;3.77;;;10.80;99.90;;;;;;5010410;28;20219;-28
2023/09/27 06:26:04;;;;;;;4.93;4.43;;;10.90;99.90;;;;;;5048639;22;20289;-31
2023/09/27 06:28:30;;;;;;;4.10;3.80;;;10.90;99.90;;;;;;5013352;28;20195;-31
2023/09/27 06:30:55;;;;;;;4.17;3.77;;;10.80;99.90;;;;;;5016674;28;20204;-31
2023/09/27 06:33:22;;;;;;;4.23;3.83;;;10.80;99.90;;;;;;5032822;28;20187;-31
2023/09/27 06:35:52;;;;;;;5.37;4.60;;;10.90;99.90;;;;;;5024094;28;20206;-31
2023/09/27 06:38:21;;;;;;;4.40;4.00;;;10.90;99.90;;;;;;5012663;28;20188;-31
2023/09/27 06:40:51;;;;;;;4.00;3.60;;;11.00;99.90;;;;;;5024816;28;20215;-31
2023/09/27 06:43:17;;;;;;;5.00;4.50;;;11.10;99.90;;;;;;5005262;28;20209;-31
2023/09/27 06:45:43;;;;;;;4.63;4.23;;;11.30;99.90;;;;;;5010387;28;20228;-31
2023/09/27 06:48:09;;;;;;;5.17;4.67;;;11.30;99.90;;;;;;5012716;28;20666;-31
2023/09/27 06:50:35;;;;;;;6.80;6.10;;;11.50;99.90;;;;;;5018948;28;20176;-32
2023/09/27 06:53:01;;;;;;;6.43;5.80;;;11.50;99.90;;;;;;5018113;28;20195;-32
2023/09/27 06:55:27;;;;;;;6.83;6.13;;;11.60;99.90;;;;;;5026701;28;20204;-31
2023/09/27 06:57:54;;;;;;;6.63;5.47;;;11.60;99.90;;;;;;5002716;28;20196;-32
2023/09/27 07:00:24;;;;;;;7.60;5.60;;;11.70;99.90;;;;;;5023374;28;20235;-31
2023/09/27 07:02:51;;;;;;;6.37;5.77;;;11.80;99.90;;;;;;5018940;28;20210;-31
2023/09/27 07:05:23;;;;;;;7.37;5.47;;;11.90;99.90;;;;;;5035343;28;20180;-31
2023/09/27 07:07:50;;;;;;;7.13;5.27;;;11.90;99.90;;;;;;5032941;28;20185;-31
2023/09/27 07:10:16;;;;;;;7.17;5.33;;;12.10;99.90;;;;;;5019559;28;20181;-31
2023/09/27 07:12:42;;;;;;;8.10;6.33;;;12.20;99.90;;;;;;5023049;28;20189;-32
2023/09/27 07:15:13;;;;;;;7.07;5.77;;;12.30;99.90;;;;;;5023349;28;20186;-32
2023/09/27 07:17:47;;;;;;;8.33;6.23;;;12.50;99.90;;;;;;5022661;28;20186;-32
2023/09/27 07:20:24;;;;;;;7.57;6.07;;;12.60;99.90;;;;;;5013378;28;20222;-32
2023/09/27 07:22:54;;;;;;;7.73;6.63;;;12.70;99.90;;;;;;5026198;28;20272;-32
2023/09/27 07:25:21;;;;;;;7.57;6.67;;;12.80;99.90;;;;;;5020143;28;20182;-32
2023/09/27 07:27:48;;;;;;;8.97;6.13;;;12.90;99.90;;;;;;5023186;28;20175;-32
2023/09/27 07:30:23;;;;;;;7.90;6.07;;;13.10;99.90;;;;;;5037192;28;20181;-32
2023/09/27 07:32:50;;;;;;;7.07;5.77;;;13.20;99.90;;;;;;5019467;28;20624;-31
2023/09/27 07:35:17;;;;;;;8.20;5.47;;;13.30;99.90;;;;;;5035050;28;20233;-32
2023/09/27 07:37:44;;;;;;;6.27;5.60;;;13.40;99.90;;;;;;5037304;28;20712;-31
2023/09/27 07:40:12;;;;;;;6.60;5.30;;;13.40;99.90;;;;;;5026644;28;20270;-31
2023/09/27 07:42:43;;;;;;;10.53;5.73;;;13.50;99.90;;;;;;5021958;28;20298;-31
2023/09/27 07:45:22;;;;;;;10.40;5.63;;;13.60;99.90;;;;;;5020566;28;20216;-31
2023/09/27 07:47:50;;;;;;;7.23;6.10;;;13.60;99.90;;;;;;5022309;28;20174;-31
2023/09/27 07:50:19;;;;;;;6.70;5.13;;;13.80;99.90;;;;;;5038854;28;20186;-31
2023/09/27 07:52:47;;;;;;;6.20;5.50;;;13.90;99.90;;;;;;5022779;28;20178;-31
2023/09/27 07:55:14;;;;;;;6.47;5.33;;;14.00;99.90;;;;;;5022424;28;20187;-31
2023/09/27 07:57:43;;;;;;;8.90;5.67;;;14.20;99.90;;;;;;5023316;28;20274;-31
2023/09/27 08:00:10;;;;;;;7.17;5.50;;;14.30;99.90;;;;;;5039108;28;20183;-32
2023/09/27 08:02:39;;;;;;;6.00;5.37;;;14.40;99.90;;;;;;5036910;28;20289;-32
2023/09/27 08:05:09;;;;;;;6.70;5.53;;;14.50;99.90;;;;;;5037640;28;20209;-31
2023/09/27 08:07:39;;;;;;;6.00;5.40;;;14.60;99.90;;;;;;5019224;28;20182;-32
2023/09/27 08:10:06;;;;;;;5.23;4.73;;;14.70;99.90;;;;;;5021840;28;20182;-31
2023/09/27 08:12:34;;;;;;;7.17;5.50;;;14.80;99.90;;;;;;5022507;28;20631;-31
2023/09/27 08:15:04;;;;;;;7.90;4.90;;;14.90;99.90;;;;;;5022547;28;20186;-31
2023/09/27 08:17:32;;;;;;;5.73;5.13;;;15.10;99.90;;;;;;5038215;28;20284;-31
2023/09/27 08:20:00;;;;;;;8.40;5.47;;;15.20;99.90;;;;;;5004638;28;20199;-31
2023/09/27 08:22:27;;;;;;;10.27;6.13;;;15.40;99.90;;;;;;5021943;28;20197;-32
2023/09/27 08:24:55;;;;;;;11.60;6.17;;;15.50;99.90;;;;;;5036798;28;20174;-32
2023/09/27 08:27:21;;;;;;;7.10;5.70;;;15.50;99.90;;;;;;5022517;28;20210;-32
2023/09/27 08:29:50;;;;;;;8.13;5.20;;;15.50;99.90;;;;;;5038282;28;20194;-32
2023/09/27 08:32:15;;;;;;;6.33;5.00;;;15.70;99.90;;;;;;5020018;28;20186;-32
2023/09/27 08:34:41;;;;;;;7.77;5.33;;;15.80;99.90;;;;;;5022162;28;20170;-31
2023/09/27 08:37:07;;;;;;;6.63;5.13;;;15.90;99.90;;;;;;5039126;28;20213;-31
2023/09/27 08:39:33;;;;;;;6.33;5.00;;;16.00;99.90;;;;;;5038385;28;20217;-31
2023/09/27 08:41:59;;;;;;;6.33;5.43;;;16.20;99.90;;;;;;5019633;28;20665;-31
2023/09/27 08:44:26;;;;;;;6.13;5.30;;;16.30;99.90;;;;;;5027832;28;20186;-31
2023/09/27 08:46:54;;;;;;;9.40;5.55;;;16.40;99.90;;;;;;5028278;28;20252;-31
2023/09/27 08:49:21;;;;;;;6.00;5.40;;;16.60;99.90;;;;;;5042458;28;20213;-32
2023/09/27 08:51:48;;;;;;;8.73;5.20;;;16.80;99.90;;;;;;5027469;28;20202;-31
2023/09/27 08:54:17;;;;;;;7.90;4.93;;;16.90;99.90;;;;;;5024838;28;20171;-31
2023/09/27 08:56:51;;;;;;;5.35;4.72;;;17.00;99.90;;;;;;5041013;28;20202;-31
2023/09/27 08:59:19;;;;;;;5.60;4.80;;;17.10;99.90;;;;;;5040783;28;20178;-31
2023/09/27 09:01:47;;;;;;;5.50;4.95;;;17.30;99.90;;;;;;5025081;28;20182;-32
2023/09/27 09:04:13;;;;;;;5.47;4.95;;;17.40;99.90;;;;;;5031153;28;20238;-31
2023/09/27 09:06:40;;;;;;;8.13;4.72;;;17.50;99.90;;;;;;5040361;28;20252;-32
2023/09/27 09:09:11;;;;;;;6.75;4.85;;;17.70;99.90;;;;;;5038068;28;20670;-31
2023/09/27 09:11:48;;;;;;;8.80;5.22;;;17.90;99.90;;;;;;5039053;28;20189;-31
2023/09/27 09:14:17;;;;;;;7.57;4.68;;;18.00;99.90;;;;;;5040825;28;20190;-31
2023/09/27 09:16:51;;;;;;;6.30;4.55;;;18.10;99.90;;;;;;5041981;28;20273;-31
2023/09/27 09:19:24;;;;;;;8.05;4.78;;;18.20;99.90;;;;;;5025640;28;20173;-31
2023/09/27 09:22:09;;;;;;;5.47;4.13;;;18.30;99.90;;;;;;5029657;28;20177;-31
2023/09/27 09:24:37;;;;;;;4.53;3.80;;;18.50;99.90;;;;;;5028372;28;20178;-31
2023/09/27 09:27:15;;;;;;;5.60;3.58;;;18.70;99.90;;;;;;5022657;28;20199;-31
2023/09/27 09:29:45;;;;;;;4.65;3.78;;;18.80;99.90;;;;;;5032901;28;20179;-31
2023/09/27 09:32:16;;;;;;;4.45;3.42;;;19.00;99.90;;;;;;5026619;28;20197;-32
2023/09/27 09:34:43;;;;;;;4.78;3.53;;;19.10;99.90;;;;;;5022787;28;20182;-31
2023/09/27 09:37:35;;;;;;;3.45;3.13;;;19.30;99.90;;;;;;5032152;28;20221;-31
2023/09/27 09:40:15;;;;;;;4.07;3.33;;;19.50;99.90;;;;;;5005985;28;20187;-32
2023/09/27 09:42:47;;;;;;;4.55;3.60;;;19.60;99.90;;;;;;5028433;28;20210;-31
2023/09/27 09:45:13;;;;;;;6.05;3.90;;;19.70;99.90;;;;;;4995794;28;20186;-32
2023/09/27 09:47:41;;;;;;;58.70;12.18;;;19.80;99.90;;;;;;4996812;28;20175;-32
2023/09/27 09:50:08;;;;;;;4.95;3.60;;;19.90;99.90;;;;;;4996924;28;20179;-32
2023/09/27 09:52:38;;;;;;;4.28;3.33;;;19.90;99.90;;;;;;4996040;28;20187;-32
2023/09/27 09:55:07;;;;;;;5.72;3.45;;;20.00;99.90;;;;;;4996130;28;20288;-32
2023/09/27 09:57:35;;;;;;;5.53;3.35;;;20.10;99.90;;;;;;5016916;28;20187;-32
2023/09/27 10:00:13;;;;;;;3.85;3.20;;;20.30;99.90;;;;;;5009989;28;20187;-32
2023/09/27 10:02:59;;;;;;;4.88;3.38;;;20.40;99.90;;;;;;5021071;28;20267;-32
2023/09/27 10:05:28;;;;;;;3.90;3.50;;;20.60;99.90;;;;;;5024680;28;20205;-32
2023/09/27 10:07:54;;;;;;;7.43;3.70;;;20.70;99.90;;;;;;5005147;28;20245;-32
2023/09/27 10:10:22;;;;;;;3.80;3.40;;;20.80;99.90;;;;;;5027939;28;20205;-32
2023/09/27 10:12:50;;;;;;;3.78;3.10;;;21.00;99.90;;;;;;5019320;28;20191;-32
2023/09/27 10:15:20;;;;;;;4.22;3.60;;;21.00;99.90;;;;;;5022607;28;20214;-32
2023/09/27 10:17:47;;;;;;;7.22;4.05;;;21.20;99.90;;;;;;5009280;28;20275;-32
2023/09/27 10:20:22;;;;;;;4.28;3.50;;;21.30;99.90;;;;;;5011338;28;20190;-32
2023/09/27 10:22:49;;;;;;;4.05;3.47;;;21.50;99.90;;;;;;5006702;28;20209;-32
2023/09/27 10:25:27;;;;;;;4.75;3.42;;;21.60;99.90;;;;;;5008101;28;20300;-32
2023/09/27 10:28:01;;;;;;;3.88;3.47;;;21.70;99.90;;;;;;5003347;28;20193;-32
2023/09/27 10:30:48;;;;;;;4.25;3.22;;;21.90;99.90;;;;;;5005661;28;20241;-32
2023/09/27 10:33:18;;;;;;;4.35;3.80;;;22.00;99.90;;;;;;5005856;28;20179;-32
2023/09/27 10:36:01;;;;;;;4.68;3.30;;;22.10;99.90;;;;;;5022291;28;20202;-32
2023/09/27 10:38:42;;;;;;;5.97;3.70;;;22.20;99.90;;;;;;5023135;28;20179;-32
2023/09/27 10:41:08;;;;;;;3.63;3.33;;;22.30;99.90;;;;;;5009553;28;20214;-32
2023/09/27 10:43:35;;;;;;;4.32;3.42;;;22.40;99.90;;;;;;5007616;28;20236;-32
2023/09/27 10:46:04;;;;;;;4.95;3.80;;;22.50;99.90;;;;;;5011413;28;20218;-32
2023/09/27 10:48:31;;;;;;;4.45;3.38;;;22.60;99.90;;;;;;5022274;28;20254;-32
2023/09/27 10:50:57;;;;;;;3.45;3.15;;;22.70;99.90;;;;;;5025843;28;20182;-32
2023/09/27 10:53:23;;;;;;;3.88;2.97;;;22.90;99.90;;;;;;5020557;28;20183;-32
2023/09/27 10:55:49;;;;;;;3.50;3.20;;;23.10;99.90;;;;;;5029347;28;20309;-32
2023/09/27 10:58:16;;;;;;;3.00;2.70;;;23.20;99.90;;;;;;5026549;28;20277;-32
2023/09/27 11:01:04;;;;;;;3.05;2.80;;;23.30;99.90;;;;;;5014678;28;20183;-32
2023/09/27 11:03:30;;;;;;;3.10;2.80;;;23.40;99.90;;;;;;5025901;28;20286;-32
2023/09/27 11:06:16;;;;;;;4.70;3.30;;;23.60;99.90;;;;;;5010576;28;20337;-32
2023/09/27 11:08:43;;;;;;;4.97;3.20;;;23.60;99.90;;;;;;5006757;28;20191;-32
2023/09/27 11:11:12;;;;;;;3.35;2.67;;;23.70;99.90;;;;;;5006850;28;20178;-32
2023/09/27 11:13:42;;;;;;;3.45;2.75;;;23.80;99.90;;;;;;5003860;28;20182;-32
2023/09/27 11:16:10;;;;;;;2.72;2.53;;;23.90;99.90;;;;;;5024605;28;20210;-32
2023/09/27 11:18:44;;;;;;;2.65;2.42;;;23.90;99.90;;;;;;5019774;28;20210;-32
2023/09/27 11:21:14;;;;;;;3.75;2.42;;;24.00;99.90;;;;;;5020153;28;20243;-32
2023/09/27 11:23:53;;;;;;;4.10;2.45;;;24.10;99.90;;;;;;5027964;28;20236;-32
2023/09/27 11:26:22;;;;;;;4.25;2.50;;;24.30;99.90;;;;;;5026876;28;20214;-32
2023/09/27 11:28:59;;;;;;;2.53;2.33;;;24.40;99.90;;;;;;5026640;28;20179;-32
2023/09/27 11:31:32;;;;;;;3.85;2.55;;;24.50;99.90;;;;;;5012863;28;20178;-32
2023/09/27 11:34:16;;;;;;;3.22;2.40;;;24.60;99.90;;;;;;5002758;28;20190;-32
2023/09/27 11:36:45;;;;;;;3.75;2.60;;;24.70;99.90;;;;;;5025535;28;20207;-32
2023/09/27 11:39:16;;;;;;;2.90;2.53;;;24.80;99.90;;;;;;5024808;28;20175;-32
2023/09/27 11:41:44;;;;;;;3.85;2.40;;;24.90;99.90;;;;;;5009620;28;20191;-32
2023/09/27 11:44:21;;;;;;;2.88;2.50;;;24.90;99.90;;;;;;5019862;28;20210;-32
2023/09/27 11:46:51;;;;;;;4.32;2.55;;;25.10;99.90;;;;;;5008996;28;20213;-32
2023/09/27 11:49:18;;;;;;;2.72;2.45;;;25.30;99.90;;;;;;5028337;28;20177;-32
2023/09/27 11:51:44;;;;;;;3.00;1.98;;;25.30;99.90;;;;;;5029575;28;20179;-32
2023/09/27 11:54:13;;;;;;;2.08;1.88;;;25.40;99.90;;;;;;5014179;28;20190;-32
2023/09/27 11:56:40;;;;;;;2.40;2.15;;;25.60;99.90;;;;;;5024320;28;20205;-32
2023/09/27 11:59:07;;;;;;;2.92;2.30;;;25.60;99.90;;;;;;5007715;28;20182;-32
2023/09/27 12:01:34;;;;;;;2.33;2.00;;;25.60;99.90;;;;;;5009838;28;20233;-32
2023/09/27 12:04:00;;;;;;;3.13;2.13;;;25.50;99.90;;;;;;5006722;28;20206;-32
2023/09/27 12:06:28;;;;;;;2.53;2.20;;;25.50;99.90;;;;;;5005378;28;20191;-32
2023/09/27 12:08:56;;;;;;;3.20;2.40;;;25.60;99.90;;;;;;5010138;28;20191;-32
2023/09/27 12:11:23;;;;;;;2.95;2.10;;;25.70;99.90;;;;;;5024548;28;20175;-32
2023/09/27 12:13:51;;;;;;;3.13;2.20;;;25.70;99.90;;;;;;4997234;28;20190;-33
2023/09/27 12:16:19;;;;;;;4.05;2.00;;;25.80;99.90;;;;;;5008846;28;20199;-32
2023/09/27 12:18:46;;;;;;;2.28;2.08;;;25.90;99.90;;;;;;5012140;28;20191;-32
2023/09/27 12:21:13;;;;;;;2.55;2.35;;;26.00;99.90;;;;;;5024916;28;20274;-32
2023/09/27 12:23:40;;;;;;;2.42;2.08;;;26.10;99.90;;;;;;5017528;28;20237;-32
2023/09/27 12:26:09;;;;;;;2.58;2.28;;;26.00;99.90;;;;;;5001999;28;20293;-32
2023/09/27 12:28:36;;;;;;;2.88;1.90;;;26.10;99.90;;;;;;5003634;28;20262;-32
2023/09/27 12:31:06;;;;;;;2.58;2.17;;;26.00;99.90;;;;;;5047046;22;20226;-30
2023/09/27 12:33:33;;;;;;;2.70;2.03;;;26.20;99.90;;;;;;5018692;28;20172;-31
2023/09/27 12:35:59;;;;;;;2.45;1.95;;;26.30;99.90;;;;;;5010380;28;20182;-29
2023/09/27 12:38:26;;;;;;;2.40;2.08;;;26.40;99.90;;;;;;4992180;28;20191;-30
2023/09/27 12:40:52;;;;;;;3.28;1.92;;;26.50;99.90;;;;;;4993260;28;20195;-29
2023/09/27 12:43:18;;;;;;;2.25;1.80;;;26.70;99.90;;;;;;4992998;28;20229;-30
2023/09/27 12:45:45;;;;;;;2.55;1.88;;;26.90;99.90;;;;;;4988039;28;20280;-30
2023/09/27 12:48:13;;;;;;;4.20;2.20;;;26.90;99.90;;;;;;5005171;28;20176;-29
2023/09/27 12:50:41;;;;;;;4.72;2.28;;;27.00;99.90;;;;;;4989438;28;20203;-30
2023/09/27 12:53:09;;;;;;;4.20;1.95;;;27.00;99.90;;;;;;4987435;28;20176;-30